Date,TemperatureHighF,TemperatureAvgF,TemperatureLowF,DewpointHighF,DewpointAvgF,DewpointLowF,HumidityHigh,HumidityAvg,HumidityLow,PressureMaxIn,PressureMinIn,WindSpeedMaxMPH,WindSpeedAvgMPH,GustSpeedMaxMPH,PrecipitationSumIn
2013-2-1,55.6,44.9,36.0,50.1,41.7,33.6,95,89,75,30.01,29.90,2,0,2,0.00
2013-2-2,45.0,39.4,34.2,42.6,37.6,32.0,96,93,89,29.99,29.92,2,0,2,0.00
2013-2-3,49.3,44.3,38.3,45.7,42.1,36.7,95,92,85,30.00,29.89,1,0,1,0.00
2013-2-4,56.2,47.4,40.5,47.3,43.1,38.6,94,85,69,29.90,29.61,4,0,4,0.00
2013-2-5,57.1,47.3,42.7,49.9,43.5,40.0,93,87,76,29.74,29.60,4,0,4,0.00
2013-2-6,52.6,46.3,40.7,44.8,42.2,38.5,95,86,71,29.78,29.52,4,0,4,0.00
2013-2-7,50.9,40.7,34.0,44.8,37.1,31.8,94,87,75,29.79,29.61,4,0,4,0.00
2013-2-8,47.7,38.6,31.1,41.3,35.4,29.2,95,89,73,29.95,29.79,3,0,3,0.00
2013-2-9,47.7,42.3,36.0,42.2,38.8,33.8,93,88,77,29.97,29.92,2,0,2,0.00
2013-2-10,47.5,44.9,43.4,43.8,41.9,40.2,93,89,83,30.00,29.95,1,0,1,0.00
2013-2-11,50.6,46.0,42.3,43.5,40.6,37.8,89,82,67,30.07,29.97,2,0,2,0.00
2013-2-12,56.9,49.9,45.0,51.4,45.6,42.6,92,85,73,30.15,30.06,4,0,4,0.00
2013-2-13,55.1,50.2,47.3,49.0,45.2,42.3,90,83,69,30.17,30.09,4,0,4,0.00
2013-2-14,66.1,49.5,36.5,52.3,42.2,33.8,91,77,54,30.22,30.11,3,0,3,0.00
2013-2-15,59.8,48.3,41.6,50.8,43.4,39.3,93,84,65,30.12,29.89,3,0,3,0.00
2013-2-16,54.4,44.5,36.7,48.2,40.4,34.6,95,86,70,29.96,29.88,4,0,4,0.00
2013-2-17,57.1,43.0,37.1,45.7,37.0,33.0,91,80,60,29.96,29.74,2,0,2,0.00
2013-2-18,49.5,41.2,34.2,40.7,36.2,30.6,91,83,66,29.75,29.38,5,0,5,0.00
2013-2-19,52.7,44.1,38.9,43.8,39.5,35.2,93,84,70,29.66,29.32,3,0,3,0.00
2013-2-20,54.4,42.5,36.4,45.2,37.7,33.4,93,84,63,29.78,29.66,3,0,3,0.00
2013-2-21,46.3,41.2,33.8,42.2,38.2,32.0,94,89,80,29.89,29.78,3,0,3,0.00
2013-2-22,46.4,43.8,38.7,44.5,41.3,36.0,94,91,87,29.87,29.60,9,1,9,0.00
2013-2-23,49.9,41.4,35.6,42.8,37.1,32.4,94,85,65,30.12,29.78,4,0,4,0.00
2013-2-24,55.4,44.6,35.1,42.5,36.0,32.9,92,74,49,30.12,29.76,5,0,5,0.00
2013-2-25,51.5,43.3,36.5,43.9,39.4,33.8,93,86,64,30.07,29.73,6,1,6,0.00
2013-2-26,53.8,41.5,31.1,43.5,35.5,28.9,94,80,57,30.07,29.91,3,0,3,0.00
2013-2-27,52.6,46.2,39.4,45.7,41.8,35.8,92,85,71,29.98,29.89,3,0,3,0.00
2013-2-28,59.8,52.9,47.9,54.1,49.3,45.5,93,88,77,30.12,29.88,4,0,4,0.00